Time;durP1;ratioP1;P1;durP2;ratioP2;P2;SDS_P1;SDS_P2;PMS_P1;PMS_P2;Temp;Humidity;BMP_temperature;BMP_pressure;BME280_temperature;BME280_humidity;BME280_pressure;Samples;Min_cycle;Max_cycle;Signal;HPM_P1;HPM_P2
2022/12/15 00:41:14;;;;;;;16.38;9.07;;;;;;;2.94;84.22;99599.81;5018593;28;20041;-73
2022/12/15 00:43:39;;;;;;;14.63;9.35;;;;;;;2.91;84.52;99594.91;5018701;28;20026;-73
2022/12/15 00:48:49;;;;;;;17.95;9.80;;;;;;;2.87;85.16;99602.03;5019077;28;20405;-73
2022/12/15 00:51:15;;;;;;;14.93;9.05;;;;;;;2.86;85.34;99610.69;5018731;28;20025;-72
2022/12/15 01:21:09;;;;;;;13.55;8.48;;;;;;;2.61;86.42;99670.06;5017381;28;20099;-73
2022/12/15 01:23:36;;;;;;;18.67;9.30;;;;;;;2.61;86.19;99677.78;5016925;28;20480;-73
2022/12/15 01:26:04;;;;;;;17.27;9.40;;;;;;;2.66;86.14;99678.25;5019724;28;20453;-73
2022/12/15 01:28:30;;;;;;;17.70;9.48;;;;;;;2.63;85.71;99661.31;5017451;28;20053;-72
2022/12/15 01:30:55;;;;;;;19.83;9.85;;;;;;;2.61;85.60;99670.88;5018770;28;20193;-73
2022/12/15 01:33:21;;;;;;;16.70;8.85;;;;;;;2.62;85.92;99677.66;5034900;28;20041;-74
2022/12/15 01:36:00;;;;;;;20.02;9.82;;;;;;;2.63;86.00;99675.91;5016729;28;20065;-72
2022/12/15 01:38:27;;;;;;;15.10;9.13;;;;;;;2.66;86.06;99683.41;5017829;28;20608;-73
2022/12/15 01:41:05;;;;;;;15.40;8.63;;;;;;;2.65;86.45;99692.06;5010976;28;20486;-73
2022/12/15 01:43:33;;;;;;;15.30;8.10;;;;;;;2.65;86.09;99687.72;5017877;28;20041;-73
2022/12/15 01:46:12;;;;;;;16.33;8.85;;;;;;;2.66;86.06;99688.53;5018531;28;20052;-74
2022/12/15 01:49:27;;;;;;;14.07;7.95;;;;;;;2.65;86.47;99677.44;5017357;28;20517;-73
2022/12/15 01:51:57;;;;;;;15.93;8.25;;;;;;;2.66;86.39;99678.25;5012818;28;20068;-74
2022/12/15 01:54:30;;;;;;;11.82;7.90;;;;;;;2.65;86.59;99676.63;5016310;28;20447;-73
2022/12/15 01:57:30;;;;;;;12.73;7.78;;;;;;;2.60;86.99;99682.09;5017544;28;20038;-73
2022/12/15 02:00:00;;;;;;;19.05;8.25;;;;;;;2.64;87.31;99692.97;4997419;28;20133;-74
2022/12/15 02:02:29;;;;;;;13.65;8.73;;;;;;;2.61;87.18;99695.78;5016274;28;20346;-74
2022/12/15 02:04:57;;;;;;;16.08;9.05;;;;;;;2.60;87.58;99705.25;5015979;28;20034;-73
2022/12/15 02:07:23;;;;;;;15.40;8.40;;;;;;;2.58;88.04;99716.56;5017071;28;20029;-73
2022/12/15 02:09:52;;;;;;;16.05;8.88;;;;;;;2.52;87.88;99704.97;5018523;28;20020;-73
2022/12/15 02:12:24;;;;;;;14.73;9.45;;;;;;;2.48;87.93;99702.75;5017312;28;20041;-73
2022/12/15 02:15:04;;;;;;;14.48;9.35;;;;;;;2.50;88.20;99700.88;5017975;28;20037;-73
2022/12/15 02:17:58;;;;;;;15.65;9.60;;;;;;;2.49;87.43;99714.66;5016406;28;20037;-74
2022/12/15 02:20:27;;;;;;;15.38;9.48;;;;;;;2.46;87.76;99725.16;5012465;28;20440;-73
2022/12/15 02:23:38;;;;;;;15.65;8.93;;;;;;;2.45;88.34;99723.53;5018011;28;20025;-72
2022/12/15 02:26:41;;;;;;;18.92;8.95;;;;;;;2.46;89.02;99725.16;5011964;28;20065;-74
2022/12/15 02:29:34;;;;;;;13.27;8.00;;;;;;;2.48;88.65;99715.59;5019556;28;20445;-73
2022/12/15 02:32:06;;;;;;;15.15;8.43;;;;;;;2.55;88.57;99721.94;5017382;28;20128;-73
2022/12/15 02:34:53;;;;;;;15.43;7.97;;;;;;;2.56;89.16;99724.41;5015509;28;20037;-73
2022/12/15 02:37:32;;;;;;;15.35;8.13;;;;;;;2.59;89.54;99724.19;5029404;28;20496;-73
2022/12/15 02:39:57;;;;;;;15.57;9.18;;;;;;;2.67;89.73;99741.63;5017404;28;20057;-74
2022/12/15 02:42:25;;;;;;;13.07;8.43;;;;;;;2.70;89.82;99731.13;5026742;28;20029;-73
2022/12/15 02:45:00;;;;;;;14.93;8.25;;;;;;;2.73;89.77;99736.03;5029005;28;20021;-73
2022/12/15 02:47:34;;;;;;;13.52;7.97;;;;;;;2.74;89.85;99732.53;5024145;28;20037;-73
2022/12/15 02:50:05;;;;;;;13.82;8.30;;;;;;;2.77;90.00;99732.31;5028143;28;20030;-73
2022/12/15 02:52:59;;;;;;;18.38;7.95;;;;;;;2.71;89.28;99731.94;5029931;28;20029;-73
2022/12/15 02:56:03;;;;;;;16.48;8.43;;;;;;;2.60;89.01;99720.69;5027728;28;20034;-72
2022/12/15 02:58:47;;;;;;;11.73;8.23;;;;;;;2.60;89.54;99722.44;5010674;28;20141;-73
2022/12/15 03:01:19;;;;;;;14.50;8.35;;;;;;;2.57;89.36;99735.50;5010316;28;20057;-73
2022/12/15 03:03:47;;;;;;;15.93;8.10;;;;;;;2.56;89.41;99733.88;5004718;28;20038;-74
2022/12/15 03:06:13;;;;;;;13.70;7.80;;;;;;;2.55;89.60;99737.38;5013608;28;20041;-73
2022/12/15 03:08:38;;;;;;;13.27;7.53;;;;;;;2.56;89.40;99736.44;5003166;28;20136;-74
2022/12/15 03:11:04;;;;;;;13.75;7.47;;;;;;;2.57;89.97;99741.47;5004196;28;20532;-74
2022/12/15 03:13:29;;;;;;;11.65;7.43;;;;;;;2.58;90.10;99734.56;5003770;28;20201;-73
2022/12/15 03:15:57;;;;;;;14.77;8.25;;;;;;;2.57;89.88;99738.91;5004334;28;20037;-74
2022/12/15 03:18:22;;;;;;;13.10;7.53;;;;;;;2.60;89.87;99748.16;5004608;28;20121;-73
2022/12/15 03:20:48;;;;;;;13.57;7.95;;;;;;;2.58;89.56;99737.16;5004079;28;20196;-74
2022/12/15 03:23:13;;;;;;;15.35;7.45;;;;;;;2.56;89.69;99744.16;5002802;28;20025;-72
2022/12/15 03:25:39;;;;;;;11.88;6.97;;;;;;;2.57;89.46;99749.19;5003925;28;20045;-73
2022/12/15 03:28:04;;;;;;;12.05;7.85;;;;;;;2.58;89.49;99744.88;5004089;28;20048;-73
2022/12/15 03:30:29;;;;;;;11.27;6.78;;;;;;;2.54;89.54;99746.00;5003098;28;20470;-73
2022/12/15 03:32:55;;;;;;;12.63;7.70;;;;;;;2.52;89.64;99738.41;5004268;28;20100;-74
2022/12/15 03:35:20;;;;;;;12.48;7.05;;;;;;;2.52;89.67;99743.56;5019415;28;20044;-73
2022/12/15 03:37:46;;;;;;;13.13;7.18;;;;;;;2.54;89.87;99738.31;5021292;28;20037;-73
2022/12/15 03:40:12;;;;;;;14.15;7.07;;;;;;;2.57;90.05;99753.50;5019515;28;20080;-73
2022/12/15 03:42:47;;;;;;;15.15;6.60;;;;;;;2.57;89.75;99750.94;5018079;28;20497;-73
2022/12/15 03:45:17;;;;;;;13.27;7.60;;;;;;;2.56;89.68;99759.59;5019661;28;20337;-72
2022/12/15 03:47:43;;;;;;;13.23;7.18;;;;;;;2.49;89.64;99758.38;5020012;28;20037;-74
2022/12/15 03:50:09;;;;;;;14.02;8.25;;;;;;;2.49;90.16;99760.94;5025556;28;20055;-72
2022/12/15 03:52:35;;;;;;;10.57;7.00;;;;;;;2.54;90.42;99769.16;5018413;28;20061;-73
2022/12/15 03:55:01;;;;;;;15.05;7.88;;;;;;;2.59;90.27;99767.91;5019940;28;20125;-73
2022/12/15 03:57:26;;;;;;;13.32;7.78;;;;;;;2.62;89.83;99766.84;5018657;28;20033;-73
2022/12/15 03:59:52;;;;;;;12.52;8.38;;;;;;;2.60;89.63;99779.00;5020839;28;20033;-73
2022/12/15 04:02:17;;;;;;;13.30;8.68;;;;;;;2.56;89.00;99783.56;5020242;28;20037;-73
2022/12/15 04:04:43;;;;;;;11.60;7.30;;;;;;;2.51;89.75;99782.22;5019414;28;20037;-73
2022/12/15 04:07:08;;;;;;;16.48;7.65;;;;;;;2.52;89.84;99797.56;5017625;28;20583;-74
2022/12/15 04:09:35;;;;;;;13.05;7.15;;;;;;;2.53;89.64;99804.34;5019185;28;20034;-74
2022/12/15 04:12:02;;;;;;;12.32;7.63;;;;;;;2.55;89.61;99807.63;5017673;28;20416;-74
2022/12/15 04:14:28;;;;;;;15.27;8.15;;;;;;;2.55;89.60;99801.66;5019883;28;20552;-73
2022/12/15 04:16:54;;;;;;;13.10;7.88;;;;;;;2.57;89.86;99789.50;5019912;28;20037;-73
2022/12/15 04:22:03;;;;;;;13.65;8.27;;;;;;;2.60;89.78;99804.72;5023432;28;20504;-72
2022/12/15 05:32:51;;;;;;;16.75;7.97;;;;;;;2.88;91.75;99855.81;5019985;28;20496;-73
2022/12/15 05:35:16;;;;;;;13.57;8.52;;;;;;;2.87;91.98;99864.47;5018937;28;20033;-72
2022/12/15 05:37:42;;;;;;;14.93;8.68;;;;;;;2.87;91.38;99864.47;5018121;28;20033;-73
2022/12/15 05:40:08;;;;;;;16.90;9.75;;;;;;;2.88;91.64;99860.97;5019119;28;20038;-73
2022/12/15 05:42:33;;;;;;;22.08;11.77;;;;;;;2.86;91.29;99855.09;5018734;28;20025;-73
2022/12/15 05:44:59;;;;;;;20.00;11.55;;;;;;;2.84;91.86;99867.25;5019772;28;20044;-73
2022/12/15 05:47:25;;;;;;;15.75;9.57;;;;;;;2.83;91.51;99873.38;5017921;28;20041;-73
2022/12/15 05:49:50;;;;;;;17.25;9.38;;;;;;;2.84;91.62;99874.97;5018477;28;20022;-73
2022/12/15 05:52:16;;;;;;;15.25;8.32;;;;;;;2.85;91.71;99874.06;5018691;28;20148;-72
2022/12/15 05:54:42;;;;;;;11.90;8.25;;;;;;;2.85;91.24;99871.47;5019558;28;20119;-72
2022/12/15 05:57:08;;;;;;;13.32;8.52;;;;;;;2.87;91.88;99874.75;5021659;28;20050;-73
2022/12/15 05:59:33;;;;;;;15.20;8.90;;;;;;;2.89;92.06;99867.75;5027890;28;20124;-73
2022/12/15 06:01:58;;;;;;;12.35;8.32;;;;;;;2.90;91.83;99861.69;5027317;28;20350;-73
2022/12/15 06:04:24;;;;;;;14.20;7.45;;;;;;;2.90;91.99;99871.97;5028458;28;20104;-74
2022/12/15 06:06:49;;;;;;;12.65;7.45;;;;;;;2.91;92.29;99871.03;5029419;28;20051;-73
2022/12/15 06:09:15;;;;;;;13.00;7.72;;;;;;;2.93;92.08;99871.75;5025516;28;20076;-73
2022/12/15 06:11:41;;;;;;;14.02;7.82;;;;;;;2.94;91.81;99880.28;5027076;28;20129;-73
2022/12/15 06:14:07;;;;;;;16.85;8.45;;;;;;;2.96;92.14;99879.25;5026670;28;20132;-73
2022/12/15 06:16:33;;;;;;;18.48;8.23;;;;;;;2.97;92.04;99875.75;5025408;28;20048;-73
2022/12/15 06:19:00;;;;;;;11.98;6.95;;;;;;;2.97;91.65;99868.03;5027312;28;20483;-73
2022/12/15 06:21:34;;;;;;;14.93;7.45;;;;;;;2.98;92.33;99867.09;5025510;28;20092;-74
2022/12/15 06:24:00;;;;;;;14.43;8.65;;;;;;;2.97;92.03;99869.78;5017277;28;20107;-73
2022/12/15 06:26:31;;;;;;;17.55;8.30;;;;;;;2.94;92.14;99859.72;5017902;28;20034;-73
2022/12/15 06:28:58;;;;;;;13.10;7.60;;;;;;;2.90;91.77;99871.97;5022432;28;20045;-74
2022/12/15 06:31:25;;;;;;;18.67;8.73;;;;;;;2.90;92.34;99871.97;5022350;28;21758;-72
2022/12/15 06:33:52;;;;;;;16.73;8.98;;;;;;;2.91;92.31;99873.63;5023855;28;20035;-74
2022/12/15 06:36:18;;;;;;;19.88;9.23;;;;;;;2.93;92.31;99873.50;5022910;28;20034;-73
2022/12/15 06:38:44;;;;;;;17.38;9.10;;;;;;;2.94;92.22;99865.66;5023030;28;20574;-74
2022/12/15 06:41:15;;;;;;;13.32;7.95;;;;;;;2.96;92.22;99868.13;5022100;28;20069;-74
2022/12/15 06:43:41;;;;;;;16.38;8.50;;;;;;;2.99;92.11;99878.22;5022911;28;20033;-74
2022/12/15 06:46:07;;;;;;;13.32;8.73;;;;;;;2.97;92.22;99873.19;5021848;28;20035;-73
2022/12/15 06:48:33;;;;;;;13.25;7.68;;;;;;;2.98;92.13;99889.44;5021585;28;20495;-73
2022/12/15 06:51:03;;;;;;;9.88;6.57;;;;;;;2.99;92.13;99891.91;5023070;28;20029;-73
2022/12/15 06:53:29;;;;;;;15.02;8.38;;;;;;;3.00;91.97;99890.97;5022343;28;20064;-73
2022/12/15 06:56:00;;;;;;;17.35;7.57;;;;;;;2.99;91.68;99907.34;5021868;28;20037;-73
2022/12/15 06:58:26;;;;;;;12.07;7.40;;;;;;;2.99;92.20;99914.25;5022300;28;20409;-72
2022/12/15 07:00:52;;;;;;;15.02;7.55;;;;;;;2.99;91.96;99925.34;5023003;28;20109;-73
2022/12/15 07:03:18;;;;;;;12.07;6.85;;;;;;;2.98;91.95;99930.63;5028213;28;20508;-73
2022/12/15 07:05:45;;;;;;;13.63;7.20;;;;;;;3.00;92.33;99937.28;5031343;28;20032;-73
2022/12/15 07:08:12;;;;;;;15.43;7.22;;;;;;;3.04;92.39;99947.38;5027349;28;20076;-73
2022/12/15 07:10:42;;;;;;;12.02;6.85;;;;;;;2.99;92.45;99947.69;5027383;28;20025;-74
2022/12/15 07:13:11;;;;;;;12.85;7.95;;;;;;;2.96;92.88;99951.31;5032534;28;20084;-72
2022/12/15 07:15:37;;;;;;;11.95;7.10;;;;;;;2.93;92.75;99954.09;5031531;28;20392;-73
2022/12/15 07:18:04;;;;;;;16.95;8.38;;;;;;;2.93;92.45;99948.94;5026717;28;20034;-73
2022/12/15 07:20:30;;;;;;;14.98;8.35;;;;;;;2.98;92.97;99948.63;5019028;28;20476;-73
2022/12/15 07:22:55;;;;;;;13.60;7.38;;;;;;;3.00;93.47;99947.59;5022333;28;20041;-72
2022/12/15 07:25:21;;;;;;;16.52;8.70;;;;;;;3.03;93.04;99940.59;5021066;28;20740;-73
2022/12/15 07:27:47;;;;;;;15.80;7.70;;;;;;;3.07;93.33;99936.84;5022938;28;20076;-73
2022/12/15 07:30:14;;;;;;;20.58;9.45;;;;;;;3.11;93.63;99938.28;5021072;28;20022;-73
2022/12/15 07:32:40;;;;;;;15.82;8.98;;;;;;;3.17;93.89;99948.97;5019361;28;20485;-73
2022/12/15 07:35:07;;;;;;;31.83;9.80;;;;;;;3.25;93.77;99940.69;5021626;28;20053;-73
2022/12/15 07:37:33;;;;;;;18.95;9.45;;;;;;;3.30;95.05;99949.75;5020741;28;20041;-73
2022/12/15 07:39:59;;;;;;;17.17;9.82;;;;;;;3.34;94.93;99952.88;5020792;28;20489;-73
2022/12/15 07:42:24;;;;;;;21.10;10.80;;;;;;;3.39;95.03;99955.13;5021044;28;20057;-73
2022/12/15 07:44:50;;;;;;;17.67;10.27;;;;;;;3.41;95.27;99961.00;5021922;28;20099;-73
2022/12/15 07:47:15;;;;;;;17.08;10.40;;;;;;;3.42;95.28;99962.63;5018704;28;20040;-75
2022/12/15 07:49:41;;;;;;;18.02;9.27;;;;;;;3.46;94.66;99964.06;5020920;28;20021;-74
2022/12/15 07:52:06;;;;;;;19.80;10.60;;;;;;;3.48;94.69;99969.91;5020478;28;20488;-73
2022/12/15 07:54:32;;;;;;;17.10;9.75;;;;;;;3.49;94.41;99972.38;5019335;28;20029;-74
2022/12/15 07:56:58;;;;;;;17.00;8.85;;;;;;;3.50;93.93;99979.19;5022345;28;20045;-73
2022/12/15 07:59:25;;;;;;;17.75;9.07;;;;;;;3.48;93.10;99975.88;5019940;28;20088;-73
2022/12/15 08:01:51;;;;;;;17.85;9.90;;;;;;;3.49;93.18;99982.69;5021775;28;20477;-73
2022/12/15 08:04:17;;;;;;;15.80;8.80;;;;;;;3.48;93.08;99986.19;5019320;28;20029;-73
2022/12/15 08:06:43;;;;;;;16.73;9.20;;;;;;;3.48;93.38;99988.78;5032321;28;20095;-74
2022/12/15 08:09:09;;;;;;;14.10;7.70;;;;;;;3.48;92.81;99981.03;5032125;28;20029;-73
2022/12/15 08:11:35;;;;;;;12.75;8.30;;;;;;;3.49;93.17;99977.53;5019358;28;20029;-73
2022/12/15 08:14:01;;;;;;;19.20;9.70;;;;;;;3.51;92.91;99965.38;5026184;28;20045;-72
2022/12/15 08:16:27;;;;;;;17.98;9.35;;;;;;;3.51;92.40;99957.63;5027896;28;20041;-73
2022/12/15 08:18:52;;;;;;;16.65;7.95;;;;;;;3.57;92.30;99959.78;5022205;28;20038;-73
2022/12/15 08:21:18;;;;;;;16.10;7.65;;;;;;;3.66;91.73;99978.91;5018884;28;20502;-73
2022/12/15 08:23:44;;;;;;;18.08;7.72;;;;;;;3.75;91.91;99988.53;5021237;28;20029;-73
2022/12/15 08:26:12;;;;;;;12.43;7.63;;;;;;;3.86;92.25;99991.13;5021269;28;20516;-73
2022/12/15 08:28:39;;;;;;;16.63;9.00;;;;;;;3.82;91.20;99994.03;5018571;28;20041;-72
2022/12/15 08:31:11;;;;;;;11.80;6.65;;;;;;;3.84;92.03;100002.47;5024909;28;20392;-73
2022/12/15 08:33:37;;;;;;;15.45;7.82;;;;;;;3.90;92.35;100007.19;5026793;28;20029;-72
2022/12/15 08:36:07;;;;;;;16.83;9.20;;;;;;;3.97;92.29;100019.50;5028615;28;20583;-71
2022/12/15 08:38:34;;;;;;;13.00;7.63;;;;;;;4.05;92.39;100029.25;5028741;28;20067;-72
2022/12/15 08:41:12;;;;;;;11.40;7.57;;;;;;;4.08;92.73;100036.75;5019558;28;20042;-72
2022/12/15 08:43:38;;;;;;;15.60;7.78;;;;;;;4.13;93.17;100062.19;5019763;28;20041;-73
2022/12/15 08:46:05;;;;;;;14.90;9.27;;;;;;;4.11;93.66;100072.63;5020959;28;20670;-72
2022/12/15 08:48:30;;;;;;;17.70;8.50;;;;;;;4.05;93.48;100080.81;5018980;28;20038;-72
2022/12/15 08:50:57;;;;;;;17.33;8.00;;;;;;;3.87;92.47;100087.28;5020089;28;20092;-73
2022/12/15 08:53:23;;;;;;;17.05;8.18;;;;;;;3.76;91.87;100102.72;5018835;28;20029;-72
2022/12/15 08:55:49;;;;;;;12.35;7.55;;;;;;;3.70;90.83;100105.75;5017744;28;20505;-72
2022/12/15 08:58:14;;;;;;;14.13;7.47;;;;;;;3.69;91.44;100109.25;5019795;28;20045;-72
2022/12/15 09:00:40;;;;;;;21.35;7.10;;;;;;;3.72;91.72;100106.47;5018089;28;20124;-72
2022/12/15 09:03:06;;;;;;;12.38;7.53;;;;;;;3.76;91.26;100118.19;5021619;28;20037;-73
2022/12/15 09:05:34;;;;;;;13.35;7.25;;;;;;;3.80;91.30;100138.44;5019005;28;20056;-72
2022/12/15 09:07:59;;;;;;;18.98;9.13;;;;;;;3.79;90.36;100151.44;5024425;28;20083;-69
2022/12/15 09:10:25;;;;;;;18.27;8.25;;;;;;;3.78;90.92;100158.34;5025712;28;20025;-70
2022/12/15 09:12:50;;;;;;;14.07;8.95;;;;;;;3.78;90.84;100167.88;5029055;28;20504;-70
2022/12/15 09:15:16;;;;;;;15.98;7.93;;;;;;;3.81;91.02;100175.34;5017115;28;20056;-72
2022/12/15 09:17:42;;;;;;;20.38;9.63;;;;;;;3.84;91.32;100185.44;5020827;28;20121;-73
2022/12/15 09:20:08;;;;;;;24.65;8.95;;;;;;;3.83;91.16;100176.88;5019392;28;20025;-73
2022/12/15 09:22:35;;;;;;;25.27;10.13;;;;;;;3.85;91.62;100182.75;5019708;28;20181;-72
2022/12/15 09:25:02;;;;;;;21.98;8.65;;;;;;;3.82;90.86;100170.09;5017306;28;20056;-71
2022/12/15 09:27:29;;;;;;;20.00;11.55;;;;;;;3.83;90.48;100165.75;5021188;28;20045;-73
2022/12/15 09:29:55;;;;;;;23.98;9.23;;;;;;;3.84;90.77;100147.59;5021769;28;20026;-72
2022/12/15 09:32:21;;;;;;;21.33;9.55;;;;;;;3.90;91.06;100141.19;5027188;28;20056;-72
2022/12/15 09:34:46;;;;;;;19.65;8.32;;;;;;;3.94;91.07;100135.72;5029203;28;20037;-73
2022/12/15 09:37:12;;;;;;;22.20;9.68;;;;;;;3.99;90.71;100140.53;5028028;28;20037;-73
2022/12/15 09:39:38;;;;;;;18.00;8.75;;;;;;;4.06;90.72;100140.94;5059626;28;20060;-72
2022/12/15 09:42:03;;;;;;;25.67;8.82;;;;;;;4.13;90.72;100139.56;5027558;28;20072;-73
2022/12/15 09:44:30;;;;;;;19.98;7.90;;;;;;;4.18;90.58;100129.72;5025806;28;20045;-72
2022/12/15 09:47:25;;;;;;;17.35;8.13;;;;;;;4.21;90.07;100121.78;5029071;28;20439;-72
2022/12/15 09:49:58;;;;;;;15.27;7.70;;;;;;;4.22;89.75;100121.66;5025887;28;20091;-72
2022/12/15 09:52:57;;;;;;;16.40;8.38;;;;;;;4.25;90.42;100130.94;5028530;28;20131;-72
2022/12/15 09:55:27;;;;;;;11.60;7.68;;;;;;;4.24;89.89;100114.63;5022745;28;20072;-72
2022/12/15 09:58:35;;;;;;;15.85;7.55;;;;;;;4.22;89.12;100110.53;5028264;28;20045;-72
2022/12/15 10:01:20;;;;;;;;;;;;;;;4.21;88.26;100114.03;5015026;28;20068;-72
2022/12/15 10:04:19;;;;;;;13.52;7.03;;;;;;;4.22;88.99;100108.75;5029721;28;20233;-72
2022/12/15 10:06:53;;;;;;;11.02;6.38;;;;;;;4.28;89.60;100104.88;5031717;28;20049;-72
2022/12/15 10:09:26;;;;;;;12.82;7.20;;;;;;;4.27;89.09;100096.31;5032564;28;20528;-73
2022/12/15 10:12:23;;;;;;;19.92;7.00;;;;;;;4.27;88.63;100088.59;5031119;28;20157;-72
2022/12/15 10:14:59;;;;;;;17.23;8.02;;;;;;;4.31;89.53;100095.16;5028249;28;20029;-73
2022/12/15 10:17:53;;;;;;;8.98;6.15;;;;;;;4.33;89.50;100088.13;5030750;28;20055;-73
2022/12/15 10:20:25;;;;;;;10.00;6.90;;;;;;;4.34;89.87;100081.22;5030768;28;20483;-73
2022/12/15 10:22:52;;;;;;;13.15;8.20;;;;;;;4.36;90.09;100078.53;5031972;28;20107;-73
2022/12/15 10:25:21;;;;;;;15.80;7.93;;;;;;;4.38;89.87;100086.97;5039294;28;20443;-73
2022/12/15 10:28:22;;;;;;;14.23;7.97;;;;;;;4.40;89.59;100078.19;5032161;28;20111;-73
2022/12/15 10:31:11;;;;;;;14.02;8.20;;;;;;;4.42;89.78;100080.66;5008166;28;20053;-73
2022/12/15 10:33:40;;;;;;;15.80;8.25;;;;;;;4.47;90.14;100078.56;5030637;28;20029;-72
2022/12/15 10:36:11;;;;;;;13.27;7.57;;;;;;;4.49;89.94;100076.69;5031751;28;20504;-73
2022/12/15 10:38:44;;;;;;;12.57;6.97;;;;;;;4.50;89.87;100076.56;5031834;28;20397;-73
2022/12/15 10:41:11;;;;;;;11.40;7.40;;;;;;;4.50;89.93;100073.16;5031756;28;20401;-73
2022/12/15 10:43:39;;;;;;;14.02;6.95;;;;;;;4.51;89.89;100067.06;5032123;28;20030;-73
2022/12/15 10:46:13;;;;;;;16.33;6.68;;;;;;;4.50;90.02;100057.69;5031906;28;20413;-72
2022/12/15 10:48:45;;;;;;;11.20;6.75;;;;;;;4.48;89.90;100055.22;5032098;28;20045;-72
2022/12/15 10:51:19;;;;;;;12.13;6.93;;;;;;;4.53;90.66;100052.31;5031723;28;20025;-72
2022/12/15 10:54:08;;;;;;;12.48;6.65;;;;;;;4.54;90.28;100039.28;5024741;28;20029;-72
2022/12/15 10:56:34;;;;;;;12.73;6.50;;;;;;;4.57;90.41;100033.06;5027087;28;20042;-71
2022/12/15 10:59:03;;;;;;;11.73;6.82;;;;;;;4.59;90.13;100033.78;5029450;28;20025;-71
2022/12/15 11:01:31;;;;;;;12.95;6.28;;;;;;;4.56;90.01;100028.84;5020255;28;20656;-71
2022/12/15 11:03:57;;;;;;;11.50;6.50;;;;;;;4.57;90.94;100015.00;5022642;28;20036;-72
2022/12/15 11:06:27;;;;;;;11.90;7.05;;;;;;;4.67;91.04;100018.53;5026357;28;20033;-71
2022/12/15 11:08:56;;;;;;;15.85;7.95;;;;;;;4.76;90.88;100020.38;5019354;28;20107;-72
2022/12/15 11:14:45;;;;;;;16.38;7.90;;;;;;;4.85;91.70;100035.16;5020630;28;20060;-70
2022/12/15 11:17:16;;;;;;;17.00;7.40;;;;;;;4.92;91.89;100046.66;5022655;28;20450;-71
2022/12/15 11:20:01;;;;;;;19.33;8.43;;;;;;;4.96;92.56;100053.25;5021429;28;20037;-71
2022/12/15 11:22:49;;;;;;;12.02;7.90;;;;;;;4.98;93.37;100041.03;5017038;28;20366;-71
2022/12/15 11:25:32;;;;;;;19.42;7.68;;;;;;;4.97;94.27;100041.97;5021333;28;20033;-71
2022/12/15 11:28:01;;;;;;;14.05;8.40;;;;;;;4.98;95.07;100038.44;5020623;28;20060;-71
2022/12/15 11:30:38;;;;;;;15.00;8.52;;;;;;;5.00;95.87;100036.56;5018384;28;20068;-71
2022/12/15 11:33:07;;;;;;;20.27;8.48;;;;;;;5.03;96.31;100035.50;5023497;28;20041;-71
2022/12/15 11:35:45;;;;;;;22.98;10.90;;;;;;;5.02;95.34;100053.72;5017782;28;20030;-71
2022/12/15 11:38:28;;;;;;;28.42;11.50;;;;;;;5.02;95.67;100040.78;5023128;28;20037;-71
2022/12/15 11:40:57;;;;;;;25.15;12.15;;;;;;;5.05;95.38;100043.97;5019691;28;20034;-71
2022/12/15 11:43:30;;;;;;;23.20;13.38;;;;;;;5.09;95.85;100039.38;5019566;28;20544;-70
2022/12/15 11:46:15;;;;;;;28.02;15.25;;;;;;;5.09;96.72;100032.47;5019382;28;20033;-70
2022/12/15 11:48:59;;;;;;;31.42;15.05;;;;;;;5.11;99.91;100016.84;5020587;28;21192;-72
2022/12/15 11:51:39;;;;;;;29.60;18.80;;;;;;;5.18;100.00;100016.25;5024005;28;20048;-72
2022/12/15 11:54:16;;;;;;;25.85;17.15;;;;;;;5.20;100.00;100009.16;5030281;28;20045;-72
2022/12/15 11:56:46;;;;;;;27.65;18.00;;;;;;;5.22;100.00;100009.03;5030126;28;20480;-72
2022/12/15 11:59:15;;;;;;;29.30;18.40;;;;;;;5.18;100.00;100002.50;5029753;28;20037;-72
2022/12/15 12:02:09;;;;;;;27.38;17.92;;;;;;;5.16;100.00;100007.78;5035786;28;20029;-72
2022/12/15 12:04:55;;;;;;;28.88;19.10;;;;;;;5.17;100.00;100019.78;5029645;28;20029;-72
2022/12/15 12:07:39;;;;;;;;;;;;;;;5.15;100.00;100019.06;5030090;28;20059;-72
2022/12/15 12:10:23;;;;;;;27.08;18.13;;;;;;;5.12;100.00;100023.66;5021607;28;19916;-72
2022/12/15 12:13:10;;;;;;;27.88;19.27;;;;;;;5.11;100.00;100022.84;5022258;28;20427;-72
2022/12/15 12:15:48;;;;;;;28.65;19.27;;;;;;;5.12;100.00;100027.06;5019101;28;20040;-72
2022/12/15 12:18:40;;;;;;;28.73;17.90;;;;;;;5.15;100.00;100038.91;5020719;28;20023;-72
2022/12/15 12:21:11;;;;;;;30.83;20.17;;;;;;;5.18;100.00;100038.66;5019681;28;20041;-72
2022/12/15 12:23:39;;;;;;;26.67;17.70;;;;;;;5.18;100.00;100036.91;5019692;28;20041;-72
2022/12/15 12:26:18;;;;;;;29.15;18.50;;;;;;;5.19;100.00;100024.81;5018214;28;20173;-72
2022/12/15 12:28:43;;;;;;;30.98;21.25;;;;;;;5.18;100.00;100028.34;5019763;28;20043;-72
2022/12/15 12:31:40;;;;;;;33.47;21.42;;;;;;;5.19;100.00;100029.97;5021595;28;20544;-72
2022/12/15 12:34:15;;;;;;;20.80;12.75;;;;;;;5.10;100.00;100035.84;5019743;28;20037;-72
2022/12/15 12:36:43;;;;;;;22.67;12.90;;;;;;;5.03;100.00;100034.69;5016517;28;20041;-72
2022/12/15 12:39:22;;;;;;;20.55;11.98;;;;;;;4.98;100.00;100017.78;5019139;28;20045;-72
2022/12/15 12:41:53;;;;;;;17.80;12.00;;;;;;;4.94;100.00;100016.38;5020963;28;20379;-72
2022/12/15 12:44:31;;;;;;;19.92;10.45;;;;;;;4.90;100.00;100004.66;5020610;28;20025;-72
2022/12/15 12:47:04;;;;;;;18.23;10.50;;;;;;;4.86;100.00;100011.00;5019307;28;20543;-72
2022/12/15 12:49:32;;;;;;;16.08;10.43;;;;;;;4.82;100.00;99996.69;5018979;28;20038;-72
2022/12/15 12:52:01;;;;;;;11.38;7.07;;;;;;;4.75;100.00;99999.84;5020050;28;20040;-72
2022/12/15 12:54:35;;;;;;;9.55;6.10;;;;;;;4.73;100.00;99996.56;5017605;28;20029;-72
2022/12/15 12:57:10;;;;;;;11.02;5.72;;;;;;;4.75;100.00;99986.94;5020378;28;20944;-72
2022/12/15 12:59:39;;;;;;;9.40;5.05;;;;;;;4.74;100.00;99983.56;5017518;28;20041;-72
2022/12/15 13:02:14;;;;;;;8.80;5.55;;;;;;;4.77;100.00;99985.91;5017056;28;20041;-71
2022/12/15 13:04:43;;;;;;;7.25;4.68;;;;;;;4.79;100.00;99978.84;5016977;28;20040;-72
2022/12/15 13:07:36;;;;;;;7.57;5.15;;;;;;;4.80;100.00;99983.06;5019717;28;20053;-72
2022/12/15 13:10:08;;;;;;;9.15;5.22;;;;;;;4.80;100.00;99987.41;5019665;28;20025;-72
2022/12/15 13:12:52;;;;;;;11.88;6.18;;;;;;;4.77;100.00;99982.50;5019298;28;20061;-72
2022/12/15 13:15:30;;;;;;;12.30;6.38;;;;;;;4.72;100.00;99969.16;5027492;28;20369;-72
2022/12/15 13:18:03;;;;;;;13.90;6.10;;;;;;;4.74;100.00;99973.22;5029893;28;20033;-72
2022/12/15 13:20:31;;;;;;;11.77;6.55;;;;;;;4.79;100.00;99970.28;5022440;28;20029;-72
2022/12/15 13:23:15;;;;;;;14.88;7.25;;;;;;;4.78;100.00;99966.06;5023001;28;20036;-71
2022/12/15 13:25:43;;;;;;;18.02;8.52;;;;;;;4.78;100.00;99953.97;5024527;28;20033;-72
2022/12/15 13:28:17;;;;;;;20.42;10.27;;;;;;;4.73;100.00;99943.19;5029798;28;20033;-72
2022/12/15 13:31:19;;;;;;;16.35;9.60;;;;;;;4.72;100.00;99945.94;5023780;28;20024;-72
2022/12/15 13:33:47;;;;;;;17.63;9.40;;;;;;;4.72;100.00;99948.50;5024358;28;20045;-72
2022/12/15 13:36:38;;;;;;;19.88;7.72;;;;;;;4.72;100.00;99941.59;5029572;28;20036;-72
2022/12/15 13:39:15;;;;;;;16.30;7.10;;;;;;;4.75;100.00;99930.19;5024813;28;20461;-71
2022/12/15 13:41:53;;;;;;;8.95;5.40;;;;;;;4.79;100.00;99924.66;5022647;28;20478;-72
2022/12/15 13:44:40;;;;;;;12.55;6.13;;;;;;;4.84;100.00;99916.56;5025645;28;20110;-72
2022/12/15 13:47:09;;;;;;;13.30;8.10;;;;;;;4.89;100.00;99912.66;5027929;28;20033;-72
2022/12/15 13:49:42;;;;;;;17.00;9.02;;;;;;;4.95;100.00;99913.94;5019990;28;20068;-72
2022/12/15 13:52:27;;;;;;;16.45;8.93;;;;;;;4.93;100.00;99911.50;5026365;28;20082;-72
2022/12/15 13:55:00;;;;;;;18.90;10.68;;;;;;;4.94;100.00;99909.72;5025345;28;20042;-71
2022/12/15 13:57:30;;;;;;;20.60;12.18;;;;;;;4.94;100.00;99907.97;5028303;28;20106;-72
2022/12/15 14:00:04;;;;;;;22.73;14.77;;;;;;;4.95;100.00;99912.19;5028247;28;20425;-72
2022/12/15 14:02:36;;;;;;;25.60;15.57;;;;;;;4.99;100.00;99913.59;5028869;28;20056;-72
2022/12/15 14:05:13;;;;;;;27.67;17.15;;;;;;;5.00;100.00;99906.66;5029652;28;20056;-72
2022/12/15 14:07:45;;;;;;;30.70;18.23;;;;;;;5.05;100.00;99916.63;5027937;28;20037;-72
2022/12/15 14:10:26;;;;;;;26.00;14.15;;;;;;;5.08;100.00;99900.88;5026500;28;20029;-72
2022/12/15 14:12:55;;;;;;;14.82;8.50;;;;;;;5.15;100.00;99900.28;5023156;28;20048;-72
2022/12/15 14:15:28;;;;;;;14.40;8.75;;;;;;;5.14;100.00;99898.63;5027066;28;20048;-71